createdAt,value
2018-08-13T00:04:02.974Z,90.00
2018-08-13T00:09:07.431Z,89.70
2018-08-13T00:14:11.544Z,90.00
2018-08-13T00:19:15.525Z,90.10
2018-08-13T00:24:19.542Z,90.00
2018-08-13T00:29:23.520Z,90.30
2018-08-13T00:34:27.499Z,90.60
2018-08-13T00:39:31.466Z,90.70
2018-08-13T00:44:35.446Z,91.00
2018-08-13T00:49:39.426Z,91.00
2018-08-13T00:54:43.420Z,90.90
2018-08-13T00:59:47.401Z,90.90
2018-08-13T01:04:51.368Z,91.50
2018-08-13T01:09:55.336Z,90.40
2018-08-13T01:14:59.334Z,90.50
2018-08-13T01:20:03.592Z,90.80
2018-08-13T01:25:09.610Z,92.80
2018-08-13T01:30:15.832Z,94.20
2018-08-13T01:35:19.783Z,94.80
2018-08-13T01:40:23.758Z,95.80
2018-08-13T01:45:27.731Z,96.20
2018-08-13T01:50:31.711Z,96.40
2018-08-13T01:55:35.690Z,96.30
2018-08-13T02:00:39.738Z,97.30
2018-08-13T02:05:43.706Z,98.00
2018-08-13T02:10:47.683Z,98.20
2018-08-13T02:15:51.875Z,99.10
2018-08-13T02:20:55.883Z,98.70
2018-08-13T02:25:59.870Z,99.10
2018-08-13T02:31:03.879Z,99.90
2018-08-13T02:36:07.859Z,99.90
2018-08-13T02:41:11.925Z,99.70
2018-08-13T02:46:15.900Z,99.40
2018-08-13T02:51:19.931Z,99.90
2018-08-13T02:56:23.894Z,99.20
2018-08-13T03:01:28.082Z,99.90
2018-08-13T03:06:32.124Z,99.90
2018-08-13T03:11:36.102Z,99.90
2018-08-13T03:16:40.173Z,99.90
2018-08-13T03:21:44.296Z,98.20
2018-08-13T03:26:48.316Z,98.00
2018-08-13T03:31:53.079Z,99.40
2018-08-13T03:36:57.082Z,99.70
2018-08-13T03:42:01.106Z,99.90
2018-08-13T03:47:05.316Z,99.90
2018-08-13T03:52:10.049Z,99.90
2018-08-13T03:57:14.025Z,99.90
2018-08-13T04:02:18.014Z,99.90
2018-08-13T04:07:22.008Z,99.90
2018-08-13T04:12:25.969Z,99.90
2018-08-13T04:17:30.131Z,99.90
2018-08-13T04:22:34.095Z,99.90
2018-08-13T04:27:38.766Z,99.90
2018-08-13T04:32:43.794Z,99.90
2018-08-13T04:37:47.695Z,99.90
2018-08-13T04:42:51.663Z,99.90
2018-08-13T04:47:56.173Z,99.90
2018-08-13T04:53:00.157Z,99.90
2018-08-13T04:58:04.130Z,99.90
2018-08-13T05:03:08.162Z,99.90
2018-08-13T05:08:12.142Z,99.90
2018-08-13T05:13:16.153Z,99.90
2018-08-13T05:18:20.222Z,99.90
2018-08-13T05:23:24.199Z,99.90
2018-08-13T05:28:28.195Z,99.90
2018-08-13T05:33:32.255Z,99.90
2018-08-13T05:38:36.243Z,99.90
2018-08-13T05:43:41.000Z,99.90
2018-08-13T05:48:45.012Z,99.90
2018-08-13T05:53:48.979Z,99.90
2018-08-13T05:58:52.971Z,99.90
2018-08-13T06:03:57.002Z,99.90
2018-08-13T06:09:00.971Z,99.90
2018-08-13T06:14:05.088Z,99.90
2018-08-13T06:19:09.251Z,99.90
2018-08-13T06:24:13.410Z,99.90
2018-08-13T06:29:17.329Z,99.90
2018-08-13T06:34:21.311Z,99.90
2018-08-13T06:39:25.315Z,99.90
2018-08-13T06:44:29.291Z,99.90
2018-08-13T06:49:33.271Z,99.90
2018-08-13T06:54:37.326Z,99.90
2018-08-13T06:59:41.289Z,99.90
2018-08-13T07:04:45.246Z,99.90
2018-08-13T07:09:49.227Z,99.90
2018-08-13T07:14:53.188Z,99.90
2018-08-13T07:19:57.331Z,99.90
2018-08-13T07:25:01.311Z,99.90
2018-08-13T07:30:07.299Z,99.90
2018-08-13T07:35:11.269Z,99.90
2018-08-13T07:40:16.188Z,99.90
2018-08-13T07:45:20.191Z,99.90
2018-08-13T07:50:24.178Z,99.90
2018-08-13T07:55:29.554Z,99.90
2018-08-13T08:00:34.297Z,99.90
2018-08-13T08:05:38.268Z,99.90
2018-08-13T08:10:42.255Z,99.90
2018-08-13T08:15:46.243Z,99.90
2018-08-13T08:20:50.262Z,99.90
2018-08-13T08:25:54.369Z,99.90
2018-08-13T08:30:59.094Z,99.90
2018-08-13T08:36:03.066Z,99.90
2018-08-13T08:41:07.107Z,99.90
2018-08-13T08:46:11.103Z,99.90
2018-08-13T08:51:15.124Z,99.90
2018-08-13T08:56:19.114Z,99.90
2018-08-13T09:01:23.139Z,99.90
2018-08-13T09:06:27.936Z,99.90
2018-08-13T09:11:31.968Z,99.90
2018-08-13T09:16:35.928Z,99.90
2018-08-13T09:21:39.950Z,99.90
2018-08-13T09:26:56.030Z,99.90
2018-08-13T09:32:27.535Z,99.90
2018-08-13T09:37:31.572Z,99.90
2018-08-13T09:42:35.558Z,99.90
2018-08-13T09:47:39.802Z,99.90
2018-08-13T09:52:44.241Z,99.90
2018-08-13T09:57:48.994Z,99.90
2018-08-13T10:02:53.043Z,99.90
2018-08-13T10:07:57.099Z,99.90
2018-08-13T10:13:01.088Z,99.90
2018-08-13T10:18:05.125Z,99.90
2018-08-13T10:23:09.127Z,99.90
2018-08-13T10:28:13.111Z,99.90
2018-08-13T10:33:17.083Z,99.90
2018-08-13T10:38:21.067Z,99.90
2018-08-13T10:43:25.041Z,99.90
2018-08-13T10:48:28.971Z,99.90
2018-08-13T10:53:33.000Z,99.90
2018-08-13T10:58:36.996Z,99.90
2018-08-13T11:03:40.964Z,99.90
2018-08-13T11:08:44.939Z,99.90
2018-08-13T11:13:49.281Z,99.90
2018-08-13T11:18:53.322Z,99.90
2018-08-13T11:23:57.344Z,99.90
2018-08-13T11:29:01.935Z,99.90
2018-08-13T11:34:05.895Z,99.90
2018-08-13T11:39:11.167Z,99.90
2018-08-13T11:44:15.270Z,99.90
2018-08-13T11:49:19.237Z,99.90
2018-08-13T11:54:23.217Z,99.90
2018-08-13T11:59:27.201Z,99.90
2018-08-13T12:04:31.942Z,99.90
2018-08-13T12:09:35.948Z,99.90
2018-08-13T12:14:39.904Z,99.90
2018-08-13T12:19:43.870Z,99.90
2018-08-13T12:24:47.875Z,99.90
2018-08-13T12:29:52.508Z,99.90
2018-08-13T12:34:56.744Z,99.90
2018-08-13T12:40:00.840Z,99.90
2018-08-13T12:45:07.265Z,99.90
2018-08-13T12:50:12.724Z,99.90
2018-08-13T12:55:16.967Z,99.90
2018-08-13T13:00:20.955Z,99.90
2018-08-13T13:05:25.963Z,99.90
2018-08-13T13:10:29.991Z,99.90
2018-08-13T13:15:33.959Z,99.90
2018-08-13T13:20:38.099Z,99.90
2018-08-13T13:25:42.032Z,99.90
2018-08-13T13:30:46.019Z,99.90
2018-08-13T13:35:50.000Z,99.90
2018-08-13T13:40:54.013Z,99.90
2018-08-13T13:45:57.972Z,99.90
2018-08-13T13:51:01.961Z,99.90
2018-08-13T13:56:05.985Z,99.90
2018-08-13T14:01:09.954Z,99.90
2018-08-13T14:06:13.957Z,99.90
2018-08-13T14:11:17.924Z,99.90
2018-08-13T14:16:21.914Z,99.90
2018-08-13T14:21:25.904Z,99.90
2018-08-13T14:26:30.041Z,99.90
2018-08-13T14:31:34.011Z,99.90
2018-08-13T14:36:38.055Z,99.90
2018-08-13T14:46:52.296Z,99.90
2018-08-13T14:51:56.258Z,99.90
2018-08-13T14:57:00.235Z,99.90
2018-08-13T15:02:04.247Z,99.90
2018-08-13T15:07:08.327Z,99.90
2018-08-13T15:12:12.327Z,99.90
2018-08-13T15:17:16.351Z,99.90
2018-08-13T15:22:20.355Z,99.90
2018-08-13T15:27:24.525Z,99.90
2018-08-13T15:32:28.359Z,99.90
2018-08-13T15:37:32.331Z,99.90
2018-08-13T15:42:36.581Z,99.90
2018-08-13T15:47:40.755Z,99.90
2018-08-13T15:52:45.192Z,99.90
2018-08-13T15:57:49.251Z,99.90
2018-08-13T16:02:53.859Z,99.90
2018-08-13T16:07:57.940Z,99.90
2018-08-13T16:13:01.867Z,99.90
2018-08-13T16:18:05.895Z,99.90
2018-08-13T16:23:09.919Z,99.90
2018-08-13T16:28:14.853Z,99.90
2018-08-13T16:33:18.843Z,99.90
2018-08-13T16:38:22.839Z,99.90
2018-08-13T16:43:26.933Z,99.90
2018-08-13T16:48:30.913Z,99.90
2018-08-13T16:53:34.907Z,99.90
2018-08-13T16:58:38.895Z,99.90
2018-08-13T17:03:42.842Z,99.90
2018-08-13T17:08:46.895Z,99.90
2018-08-13T17:13:50.874Z,99.90
2018-08-13T17:18:54.824Z,99.90
2018-08-13T17:23:58.858Z,99.90
2018-08-13T17:29:03.164Z,99.90
2018-08-13T17:34:08.307Z,99.90
2018-08-13T17:39:14.092Z,99.90
2018-08-13T17:44:18.051Z,99.90
2018-08-13T17:49:22.020Z,99.90
2018-08-13T17:54:26.041Z,99.90
2018-08-13T17:59:30.023Z,99.90
2018-08-13T18:04:33.988Z,99.90
2018-08-13T18:09:37.975Z,99.90
2018-08-13T18:14:41.946Z,99.90
2018-08-13T18:19:46.192Z,99.90
2018-08-13T18:24:50.172Z,99.90
2018-08-13T18:29:54.279Z,99.90
2018-08-13T18:34:58.458Z,99.90
2018-08-13T18:40:02.439Z,99.90
2018-08-13T18:45:07.595Z,99.90
2018-08-13T18:50:13.731Z,99.90
2018-08-13T18:55:21.649Z,99.90
2018-08-13T19:00:28.255Z,99.90
2018-08-13T19:05:33.698Z,99.90
2018-08-13T19:10:38.027Z,99.90
2018-08-13T19:15:42.011Z,99.90
2018-08-13T19:20:46.027Z,99.90
2018-08-13T19:25:50.003Z,99.90
2018-08-13T19:30:54.109Z,99.90
2018-08-13T19:35:58.111Z,99.90
2018-08-13T19:41:02.115Z,99.90
2018-08-13T19:46:06.732Z,99.90
2018-08-13T19:51:11.586Z,99.90
2018-08-13T19:56:15.636Z,99.90
2018-08-13T20:01:19.943Z,99.90
2018-08-13T20:06:23.918Z,99.90
2018-08-13T20:11:27.907Z,99.90
2018-08-13T20:16:31.883Z,99.90
2018-08-13T20:21:35.854Z,99.90
2018-08-13T20:26:39.884Z,99.90
2018-08-13T20:31:43.907Z,99.90
2018-08-13T20:36:47.895Z,99.90
2018-08-13T20:41:51.858Z,99.90
2018-08-13T20:46:55.855Z,99.90
2018-08-13T20:51:59.885Z,99.90
2018-08-13T20:57:03.882Z,99.90
2018-08-13T21:02:08.062Z,99.90
2018-08-13T21:07:12.052Z,99.90
2018-08-13T21:12:16.035Z,99.90
2018-08-13T21:17:20.061Z,99.90
2018-08-13T21:22:25.131Z,99.90
2018-08-13T21:27:29.139Z,99.90
2018-08-13T21:32:33.461Z,99.90
2018-08-13T21:37:37.456Z,99.90
2018-08-13T21:42:41.473Z,99.90
2018-08-13T21:47:45.668Z,99.90
2018-08-13T21:52:50.353Z,99.90
2018-08-13T21:57:54.351Z,99.90
2018-08-13T22:03:01.439Z,99.90
2018-08-13T22:08:05.771Z,99.90
2018-08-13T22:13:09.757Z,99.90
2018-08-13T22:18:14.626Z,99.90
2018-08-13T22:23:19.428Z,99.90
2018-08-13T22:28:23.476Z,99.90
2018-08-13T22:33:27.494Z,99.90
2018-08-13T22:38:32.417Z,99.90
2018-08-13T22:43:37.255Z,99.90
2018-08-13T22:48:41.306Z,99.90
2018-08-13T22:53:45.307Z,99.90
2018-08-13T22:58:49.508Z,99.90
2018-08-13T23:03:53.473Z,99.90
2018-08-13T23:08:57.419Z,99.90
2018-08-13T23:14:01.403Z,99.90
2018-08-13T23:19:05.471Z,99.90
2018-08-13T23:24:11.084Z,99.90
2018-08-13T23:29:15.254Z,99.90
2018-08-13T23:34:19.383Z,99.90
2018-08-13T23:39:23.374Z,99.90
2018-08-13T23:44:27.378Z,99.90
2018-08-13T23:49:31.343Z,99.90
2018-08-13T23:54:35.327Z,99.90
2018-08-13T23:59:39.331Z,99.90
